Time;durP1;ratioP1;P1;durP2;ratioP2;P2;SDS_P1;SDS_P2;PMS_P1;PMS_P2;Temp;Humidity;BMP_temperature;BMP_pressure;BME280_temperature;BME280_humidity;BME280_pressure;Samples;Min_cycle;Max_cycle;Signal;HPM_P1;HPM_P2
2023/10/20 00:02:20;;;;;;;6.82;6.00;;;15.00;99.90;;;;;;4995777;28;20463;-45
2023/10/20 00:04:45;;;;;;;10.07;6.22;;;15.10;99.90;;;;;;4996868;28;20034;-47
2023/10/20 00:07:11;;;;;;;9.57;6.03;;;15.10;99.90;;;;;;4996353;28;20064;-50
2023/10/20 00:09:37;;;;;;;8.27;5.53;;;15.10;99.90;;;;;;4994928;28;20049;-47
2023/10/20 00:12:04;;;;;;;11.68;8.68;;;15.20;99.90;;;;;;4996333;28;20084;-51
2023/10/20 00:14:30;;;;;;;10.68;6.88;;;15.30;99.90;;;;;;4992147;28;20556;-50
2023/10/20 00:16:55;;;;;;;10.15;8.27;;;15.30;99.90;;;;;;4992028;28;20018;-51
2023/10/20 00:19:21;;;;;;;13.38;8.32;;;15.30;99.90;;;;;;4992228;28;20414;-50
2023/10/20 00:21:46;;;;;;;9.90;7.93;;;15.30;99.90;;;;;;4992262;28;20486;-51
2023/10/20 00:24:12;;;;;;;11.45;7.97;;;15.30;99.90;;;;;;4991918;28;20037;-47
2023/10/20 00:26:39;;;;;;;9.63;8.35;;;15.30;99.90;;;;;;4991823;28;20026;-51
2023/10/20 00:29:05;;;;;;;10.88;8.82;;;15.30;99.90;;;;;;4992451;28;20457;-47
2023/10/20 00:31:31;;;;;;;12.05;9.00;;;15.30;99.90;;;;;;4991966;28;20022;-47
2023/10/20 00:33:57;;;;;;;15.23;8.80;;;15.20;99.90;;;;;;4991994;28;20023;-47
2023/10/20 00:36:22;;;;;;;11.60;8.30;;;15.20;99.90;;;;;;4990679;28;20027;-50
2023/10/20 00:38:47;;;;;;;11.82;9.13;;;15.20;99.90;;;;;;4991813;28;20438;-48
2023/10/20 00:41:13;;;;;;;12.55;8.82;;;15.20;99.90;;;;;;4992046;28;20037;-47
2023/10/20 00:43:39;;;;;;;8.77;7.65;;;15.20;99.90;;;;;;4991990;28;20026;-47
2023/10/20 00:46:06;;;;;;;10.55;7.55;;;15.20;99.90;;;;;;4991889;28;20033;-48
2023/10/20 00:48:34;;;;;;;8.50;7.30;;;15.10;99.90;;;;;;4991662;28;20516;-50
2023/10/20 00:51:00;;;;;;;12.50;8.13;;;15.10;99.90;;;;;;4990732;28;20060;-47
2023/10/20 00:53:28;;;;;;;13.35;7.18;;;15.10;99.90;;;;;;4992065;28;20036;-47
2023/10/20 00:55:56;;;;;;;13.77;6.90;;;15.10;99.90;;;;;;4992248;28;20038;-47
2023/10/20 00:58:23;;;;;;;8.32;6.03;;;15.10;99.90;;;;;;4995827;28;20046;-46
2023/10/20 01:00:49;;;;;;;7.30;6.60;;;15.20;99.90;;;;;;4996126;28;20022;-47
2023/10/20 01:03:14;;;;;;;6.82;6.13;;;15.10;99.90;;;;;;4995761;28;20168;-51
2023/10/20 01:05:40;;;;;;;7.05;6.20;;;15.10;99.90;;;;;;4995765;28;20448;-47
2023/10/20 01:08:06;;;;;;;8.45;6.13;;;15.20;99.90;;;;;;4995432;28;20027;-49
2023/10/20 01:10:31;;;;;;;6.38;5.78;;;15.20;99.90;;;;;;4995670;28;20110;-48
2023/10/20 01:12:57;;;;;;;7.43;5.93;;;15.20;99.90;;;;;;4996189;28;20034;-47
2023/10/20 01:15:22;;;;;;;7.85;5.97;;;15.20;99.90;;;;;;4994882;28;20023;-47
2023/10/20 01:17:48;;;;;;;8.52;6.72;;;15.20;99.90;;;;;;4994980;28;20035;-47
2023/10/20 01:20:13;;;;;;;10.70;6.78;;;15.20;99.90;;;;;;4995328;28;20049;-46
2023/10/20 01:22:40;;;;;;;8.73;6.82;;;15.30;99.90;;;;;;4993904;28;20025;-48
2023/10/20 01:25:06;;;;;;;13.85;6.90;;;15.30;99.90;;;;;;4995627;28;20409;-47
2023/10/20 01:27:31;;;;;;;11.77;6.63;;;15.30;99.90;;;;;;4994908;28;20030;-47
2023/10/20 01:29:57;;;;;;;9.00;6.80;;;15.30;99.90;;;;;;4995324;28;20026;-47
2023/10/20 01:32:22;;;;;;;12.35;6.97;;;15.20;99.90;;;;;;4994880;28;20064;-49
2023/10/20 01:34:48;;;;;;;11.70;6.82;;;15.20;99.90;;;;;;4994915;28;20029;-47
2023/10/20 01:37:14;;;;;;;8.07;6.35;;;15.20;99.90;;;;;;4994710;28;20393;-47
2023/10/20 01:39:41;;;;;;;9.65;6.60;;;15.20;99.90;;;;;;4994886;28;20378;-47
2023/10/20 01:42:07;;;;;;;7.40;6.35;;;15.20;99.90;;;;;;4995003;28;20502;-50
2023/10/20 01:44:33;;;;;;;7.45;6.75;;;15.10;99.90;;;;;;4994711;28;20406;-47
2023/10/20 01:46:59;;;;;;;10.98;6.72;;;15.10;99.90;;;;;;4994540;28;20034;-50
2023/10/20 01:49:25;;;;;;;12.77;6.32;;;15.20;99.90;;;;;;4994986;28;20026;-51
2023/10/20 01:51:50;;;;;;;8.82;6.32;;;15.10;99.90;;;;;;4994667;28;20109;-49
2023/10/20 01:54:16;;;;;;;10.27;5.88;;;15.10;99.90;;;;;;4994678;28;20034;-46
2023/10/20 01:56:42;;;;;;;8.52;5.95;;;15.10;99.90;;;;;;4994273;28;20026;-47
2023/10/20 01:59:08;;;;;;;8.60;5.70;;;15.10;99.90;;;;;;4993346;28;20018;-51
2023/10/20 02:01:34;;;;;;;6.85;6.15;;;15.20;99.90;;;;;;4994450;28;20148;-48
2023/10/20 02:04:00;;;;;;;6.78;6.03;;;15.20;99.90;;;;;;4994168;28;20238;-49
2023/10/20 02:06:25;;;;;;;8.15;6.20;;;15.20;99.90;;;;;;4994370;28;20045;-49
2023/10/20 02:08:51;;;;;;;6.82;6.10;;;15.20;99.90;;;;;;4994003;28;20092;-47
2023/10/20 02:11:17;;;;;;;10.02;6.63;;;15.20;99.90;;;;;;4994269;28;20031;-50
2023/10/20 02:13:45;;;;;;;9.32;7.85;;;15.20;99.90;;;;;;4994349;28;20026;-47
2023/10/20 02:16:11;;;;;;;8.07;6.47;;;15.20;99.90;;;;;;4994227;28;20120;-47
2023/10/20 02:18:37;;;;;;;9.18;7.30;;;15.20;99.90;;;;;;4994082;28;20058;-47
2023/10/20 02:21:03;;;;;;;9.85;7.35;;;15.20;99.90;;;;;;4994181;28;20038;-47
2023/10/20 02:23:34;;;;;;;7.63;6.88;;;15.20;99.90;;;;;;4994086;28;20383;-48
2023/10/20 02:26:02;;;;;;;8.50;7.70;;;15.20;99.90;;;;;;4994098;28;20022;-50
2023/10/20 02:28:28;;;;;;;8.13;7.15;;;15.10;99.90;;;;;;4993709;28;20034;-50
2023/10/20 02:30:57;;;;;;;8.52;7.65;;;15.20;99.90;;;;;;4994170;28;20466;-48
2023/10/20 02:33:23;;;;;;;9.27;7.80;;;15.10;99.90;;;;;;4993895;28;20023;-52
2023/10/20 02:35:48;;;;;;;10.40;8.05;;;15.10;99.90;;;;;;4993784;28;20073;-49
2023/10/20 02:38:14;;;;;;;17.40;8.05;;;15.10;99.90;;;;;;4993652;28;20022;-48
2023/10/20 02:40:47;;;;;;;12.25;8.15;;;15.10;99.90;;;;;;4992597;28;20313;-48
2023/10/20 02:43:13;;;;;;;9.10;7.82;;;15.10;99.90;;;;;;4993768;28;20026;-49
2023/10/20 02:45:51;;;;;;;8.98;8.13;;;15.10;99.90;;;;;;4993541;28;20023;-47
2023/10/20 02:48:16;;;;;;;10.55;8.30;;;15.10;99.90;;;;;;4993395;28;20461;-48
2023/10/20 02:50:42;;;;;;;12.90;8.43;;;15.10;99.90;;;;;;4993652;28;20106;-48
2023/10/20 02:53:08;;;;;;;8.85;7.75;;;15.10;99.90;;;;;;4993762;28;20030;-50
2023/10/20 02:55:34;;;;;;;13.75;8.88;;;15.00;99.90;;;;;;4993608;28;20034;-51
2023/10/20 02:58:00;;;;;;;10.88;9.05;;;15.20;99.90;;;;;;4993269;28;20036;-49
2023/10/20 03:00:26;;;;;;;15.38;8.25;;;15.10;99.90;;;;;;4993436;28;20038;-48
2023/10/20 03:02:53;;;;;;;9.35;8.45;;;15.00;99.90;;;;;;4993503;28;20512;-49
2023/10/20 03:05:22;;;;;;;11.65;7.78;;;15.10;99.90;;;;;;4992145;28;20026;-49
2023/10/20 03:07:48;;;;;;;10.93;8.57;;;15.10;99.90;;;;;;4993176;28;20026;-51
2023/10/20 03:10:13;;;;;;;12.10;9.02;;;15.00;99.90;;;;;;4993286;28;20105;-45
2023/10/20 03:12:39;;;;;;;8.57;7.70;;;15.00;99.90;;;;;;4993150;28;20080;-49
2023/10/20 03:15:10;;;;;;;9.20;8.30;;;15.10;99.90;;;;;;4993041;28;20030;-49
2023/10/20 03:17:36;;;;;;;11.15;8.65;;;15.00;99.90;;;;;;4993006;28;20054;-49
2023/10/20 03:20:08;;;;;;;11.23;8.13;;;15.00;99.90;;;;;;4992530;28;20446;-48
2023/10/20 03:22:34;;;;;;;12.13;8.65;;;15.00;99.90;;;;;;4993064;28;20026;-47
2023/10/20 03:25:00;;;;;;;10.18;8.25;;;15.10;99.90;;;;;;4993171;28;20546;-48
2023/10/20 03:27:25;;;;;;;11.20;8.95;;;15.10;99.90;;;;;;4993009;28;20093;-48
2023/10/20 03:29:51;;;;;;;11.60;9.05;;;15.00;99.90;;;;;;4992165;28;20026;-50
2023/10/20 03:32:16;;;;;;;12.07;8.68;;;15.00;99.90;;;;;;4991530;28;20023;-49
2023/10/20 03:34:42;;;;;;;14.38;9.30;;;15.00;99.90;;;;;;4992937;28;20041;-47
2023/10/20 03:37:07;;;;;;;10.98;9.05;;;15.10;99.90;;;;;;4991712;28;20077;-51
2023/10/20 03:39:34;;;;;;;11.93;9.43;;;15.00;99.90;;;;;;4993395;28;20549;-49
2023/10/20 03:42:02;;;;;;;12.77;9.85;;;15.00;99.90;;;;;;4993024;28;20038;-48
2023/10/20 03:44:27;;;;;;;15.77;9.07;;;15.00;99.90;;;;;;4993210;28;20463;-51
2023/10/20 03:49:22;;;;;;;14.05;9.75;;;15.00;99.90;;;;;;5010442;23;20074;-46
2023/10/20 03:51:49;;;;;;;11.32;9.70;;;15.00;99.90;;;;;;4992411;28;20467;-49
2023/10/20 03:54:16;;;;;;;12.77;9.80;;;14.90;99.90;;;;;;4991111;28;20042;-44
2023/10/20 03:56:42;;;;;;;14.68;10.65;;;14.90;99.90;;;;;;4992215;28;20026;-50
2023/10/20 03:59:09;;;;;;;13.63;9.60;;;14.90;99.90;;;;;;4992350;28;20026;-44
2023/10/20 04:01:35;;;;;;;16.17;9.40;;;14.90;99.90;;;;;;4992274;28;20030;-44
2023/10/20 04:04:00;;;;;;;10.13;9.18;;;14.80;99.90;;;;;;4991915;28;20525;-46
2023/10/20 04:06:26;;;;;;;10.27;8.95;;;14.80;99.90;;;;;;4992157;28;20101;-47
2023/10/20 04:08:51;;;;;;;11.40;9.60;;;14.80;99.90;;;;;;4991853;28;20026;-45
2023/10/20 04:11:17;;;;;;;11.50;9.32;;;14.80;99.90;;;;;;4992267;28;20030;-44
2023/10/20 04:13:43;;;;;;;11.85;9.95;;;14.90;99.90;;;;;;4992474;28;20028;-45
2023/10/20 04:16:13;;;;;;;11.70;9.50;;;14.80;99.90;;;;;;4992469;28;20019;-44
2023/10/20 04:18:42;;;;;;;9.77;8.68;;;15.00;99.90;;;;;;4991887;28;20044;-48
2023/10/20 04:21:08;;;;;;;11.35;8.68;;;14.80;99.90;;;;;;4992101;28;20077;-50
2023/10/20 04:23:34;;;;;;;15.35;9.15;;;15.10;99.90;;;;;;4991997;28;20030;-46
2023/10/20 04:26:00;;;;;;;14.55;8.93;;;14.80;99.90;;;;;;4991989;28;20101;-45
2023/10/20 04:28:44;;;;;;;11.63;8.00;;;14.70;99.90;;;;;;4991842;28;20026;-46
2023/10/20 04:50:35;;;;;;;11.10;9.07;;;14.90;99.90;;;;;;4995991;28;20030;-44
2023/10/20 04:58:35;;;;;;;10.88;9.38;;;14.60;99.90;;;;;;4995525;28;20025;-48
2023/10/20 05:01:07;;;;;;;13.40;8.95;;;14.90;99.90;;;;;;4995577;28;20026;-45
2023/10/20 05:03:45;;;;;;;15.07;9.18;;;14.60;99.90;;;;;;4995285;28;20022;-47
2023/10/20 05:06:22;;;;;;;12.30;9.30;;;14.80;99.90;;;;;;4995548;28;20030;-45
2023/10/20 05:08:49;;;;;;;12.57;8.98;;;14.60;99.90;;;;;;4995244;28;20027;-49
2023/10/20 05:11:15;;;;;;;10.00;8.80;;;14.70;99.90;;;;;;4995339;28;20030;-50
2023/10/20 05:13:41;;;;;;;14.18;9.43;;;14.70;99.90;;;;;;4995419;28;20161;-47
2023/10/20 05:16:09;;;;;;;13.95;9.75;;;14.60;99.90;;;;;;4995295;28;20026;-47
2023/10/20 05:18:38;;;;;;;11.05;8.82;;;14.60;99.90;;;;;;4995147;28;20032;-46
2023/10/20 05:21:05;;;;;;;10.75;9.35;;;14.60;99.90;;;;;;4995136;28;20026;-48
2023/10/20 05:23:32;;;;;;;13.18;9.95;;;14.60;99.90;;;;;;4995133;28;20023;-47
2023/10/20 05:25:57;;;;;;;11.82;9.57;;;14.50;99.90;;;;;;4995020;28;20033;-48
2023/10/20 05:28:23;;;;;;;13.60;10.77;;;14.60;99.90;;;;;;4994832;28;20018;-49
2023/10/20 05:30:49;;;;;;;13.13;10.20;;;14.50;99.90;;;;;;4995017;28;20170;-52
2023/10/20 05:33:15;;;;;;;13.80;11.15;;;14.50;99.90;;;;;;4994998;28;20121;-44
2023/10/20 05:35:41;;;;;;;14.23;11.13;;;14.50;99.90;;;;;;4994777;28;20037;-46
2023/10/20 05:38:07;;;;;;;20.05;11.43;;;14.50;99.90;;;;;;4994685;28;20041;-45
2023/10/20 05:40:35;;;;;;;14.85;11.27;;;14.40;99.90;;;;;;4994857;28;20026;-44
2023/10/20 05:43:03;;;;;;;18.35;11.70;;;14.40;99.90;;;;;;4994110;28;20113;-45
2023/10/20 05:45:32;;;;;;;20.13;12.70;;;14.40;99.90;;;;;;4994658;28;20030;-45
2023/10/20 05:47:59;;;;;;;16.30;11.68;;;14.40;99.90;;;;;;4994395;28;20026;-47
2023/10/20 05:50:24;;;;;;;14.00;11.60;;;14.40;99.90;;;;;;4994785;28;20019;-47
2023/10/20 05:52:52;;;;;;;20.52;13.60;;;14.50;99.90;;;;;;4993110;28;20479;-49
2023/10/20 05:55:18;;;;;;;17.05;14.27;;;14.50;99.90;;;;;;4994445;28;20367;-49
2023/10/20 05:57:45;;;;;;;19.98;13.88;;;14.50;99.90;;;;;;4993211;28;20025;-48
2023/10/20 06:00:13;;;;;;;16.00;12.07;;;14.40;99.90;;;;;;4994646;28;20027;-48
2023/10/20 06:02:40;;;;;;;18.83;12.85;;;14.50;99.90;;;;;;4994258;28;20064;-47
2023/10/20 06:05:07;;;;;;;17.48;13.00;;;14.40;99.90;;;;;;4994715;28;20057;-46
2023/10/20 06:07:32;;;;;;;21.98;12.60;;;14.50;99.90;;;;;;4994210;28;20026;-48
2023/10/20 06:09:58;;;;;;;18.33;14.07;;;14.50;99.90;;;;;;4994411;28;20041;-44
2023/10/20 06:12:23;;;;;;;17.20;13.45;;;14.50;99.90;;;;;;4994695;28;20058;-48
2023/10/20 06:14:49;;;;;;;19.95;12.65;;;14.50;99.90;;;;;;4994348;28;20501;-48
2023/10/20 06:17:17;;;;;;;20.33;13.82;;;14.50;99.90;;;;;;4994108;28;20019;-46
2023/10/20 06:19:44;;;;;;;16.58;12.88;;;14.30;99.90;;;;;;4994436;28;20027;-48
2023/10/20 06:22:09;;;;;;;18.63;14.27;;;14.50;99.90;;;;;;4994474;28;20031;-44
2023/10/20 06:24:35;;;;;;;18.15;14.02;;;14.50;99.90;;;;;;4992984;28;20034;-49
2023/10/20 06:27:03;;;;;;;22.48;13.98;;;14.50;99.90;;;;;;4994098;28;20442;-44
2023/10/20 06:31:58;;;;;;;18.98;15.45;;;14.40;99.90;;;;;;4994738;28;20027;-46
2023/10/20 06:34:24;;;;;;;23.67;16.10;;;14.50;99.90;;;;;;4994158;28;20023;-45
2023/10/20 06:36:59;;;;;;;18.67;16.13;;;14.40;99.90;;;;;;4992710;28;20120;-46
2023/10/20 06:39:26;;;;;;;;;;;14.50;99.90;;;;;;4994632;28;20026;-46
2023/10/20 06:41:51;;;;;;;21.23;17.00;;;14.40;99.90;;;;;;4994135;28;20278;-51
2023/10/20 06:44:17;;;;;;;25.25;18.45;;;14.50;99.90;;;;;;4993856;28;20037;-46
2023/10/20 06:46:43;;;;;;;24.30;18.73;;;14.40;99.90;;;;;;4993602;28;20030;-49
2023/10/20 06:49:08;;;;;;;22.85;17.50;;;14.30;99.90;;;;;;4993711;28;20034;-49
2023/10/20 06:51:34;;;;;;;26.85;18.80;;;14.20;99.90;;;;;;4993653;28;20065;-52
2023/10/20 06:53:59;;;;;;;27.05;19.52;;;14.10;99.90;;;;;;4991328;28;20490;-46
2023/10/20 06:56:25;;;;;;;24.42;20.50;;;14.10;99.90;;;;;;4993679;28;20023;-45
2023/10/20 06:58:50;;;;;;;22.25;18.30;;;14.10;99.90;;;;;;4993401;28;20089;-52
2023/10/20 07:01:16;;;;;;;25.40;19.73;;;14.10;99.90;;;;;;4993492;28;20494;-46
2023/10/20 07:03:41;;;;;;;24.80;20.00;;;14.20;99.90;;;;;;4993426;28;20482;-44
2023/10/20 07:06:09;;;;;;;24.20;19.45;;;14.20;99.90;;;;;;4992235;28;20117;-46
2023/10/20 07:08:34;;;;;;;27.25;19.83;;;14.50;99.90;;;;;;4993092;28;20023;-49
2023/10/20 07:11:04;;;;;;;26.02;18.88;;;14.20;99.90;;;;;;4993313;28;20033;-46
2023/10/20 07:13:34;;;;;;;20.80;17.50;;;14.20;99.90;;;;;;4993404;28;20019;-47
2023/10/20 07:16:00;;;;;;;22.60;18.33;;;14.20;99.90;;;;;;4993326;28;20026;-45
2023/10/20 07:18:26;;;;;;;23.27;17.15;;;14.20;99.90;;;;;;4992985;28;20014;-46
2023/10/20 07:20:52;;;;;;;23.63;17.92;;;14.20;99.90;;;;;;4993323;28;20032;-48
2023/10/20 07:23:18;;;;;;;26.83;18.60;;;14.20;99.90;;;;;;4991637;28;20027;-48
2023/10/20 07:25:43;;;;;;;27.35;20.15;;;14.20;99.90;;;;;;4992334;28;20018;-48
2023/10/20 07:28:09;;;;;;;25.70;19.48;;;14.20;99.90;;;;;;4990504;28;20037;-47
2023/10/20 07:30:35;;;;;;;22.88;18.83;;;14.30;99.90;;;;;;4992867;28;20089;-47
2023/10/20 07:33:03;;;;;;;24.10;18.75;;;14.20;99.90;;;;;;4992435;28;20026;-45
2023/10/20 07:35:29;;;;;;;23.85;20.15;;;14.20;99.90;;;;;;4992824;28;20074;-49
2023/10/20 07:37:54;;;;;;;23.65;19.10;;;14.20;99.90;;;;;;4992465;28;20022;-44
2023/10/20 07:40:20;;;;;;;25.20;19.08;;;14.20;99.90;;;;;;4992782;28;20058;-49
2023/10/20 07:42:46;;;;;;;29.45;20.77;;;14.10;99.90;;;;;;4991276;28;20480;-49
2023/10/20 07:45:11;;;;;;;25.58;18.40;;;14.20;99.90;;;;;;4992776;28;20517;-49
2023/10/20 07:47:37;;;;;;;21.83;17.50;;;14.20;99.90;;;;;;4992147;28;20113;-47
2023/10/20 07:50:03;;;;;;;21.08;17.77;;;14.10;99.90;;;;;;4992947;28;20069;-47
2023/10/20 07:52:29;;;;;;;21.83;17.52;;;14.20;99.90;;;;;;4973876;28;20063;-45
2023/10/20 07:54:55;;;;;;;24.05;17.08;;;14.20;99.90;;;;;;4982623;28;20513;-47
2023/10/20 07:57:22;;;;;;;24.50;18.40;;;14.20;99.90;;;;;;4990690;28;20034;-50
2023/10/20 07:59:48;;;;;;;26.13;17.20;;;14.20;99.90;;;;;;4987248;28;20026;-45
2023/10/20 08:02:13;;;;;;;21.27;17.73;;;14.20;99.90;;;;;;4992998;28;20038;-45
2023/10/20 08:04:41;;;;;;;26.15;18.13;;;14.20;99.90;;;;;;4991880;28;20113;-43
2023/10/20 08:07:09;;;;;;;24.05;18.20;;;14.10;99.90;;;;;;4991631;28;20030;-46
2023/10/20 08:09:36;;;;;;;28.30;19.92;;;14.20;99.90;;;;;;4992201;28;20026;-45
2023/10/20 08:12:02;;;;;;;21.88;16.40;;;14.10;99.90;;;;;;4992060;28;20023;-44
2023/10/20 08:14:28;;;;;;;22.55;17.00;;;14.10;99.90;;;;;;4992359;28;20445;-45
2023/10/20 08:16:54;;;;;;;20.90;17.08;;;14.20;99.90;;;;;;4992263;28;20019;-46
2023/10/20 08:19:20;;;;;;;23.40;16.52;;;14.10;99.90;;;;;;4992055;28;20105;-44
2023/10/20 08:21:45;;;;;;;22.13;16.67;;;14.10;99.90;;;;;;4992425;28;20121;-48
2023/10/20 08:24:11;;;;;;;22.63;17.90;;;14.20;99.90;;;;;;4992051;28;20494;-47
2023/10/20 08:26:37;;;;;;;22.25;17.55;;;14.10;99.90;;;;;;4990692;28;20036;-44
2023/10/20 08:29:12;;;;;;;21.33;15.88;;;14.20;99.90;;;;;;4991778;28;20101;-47
2023/10/20 08:31:38;;;;;;;24.30;17.15;;;14.20;99.90;;;;;;4991906;28;20500;-47
2023/10/20 08:34:04;;;;;;;20.77;16.30;;;14.20;99.90;;;;;;4991958;28;20054;-50
2023/10/20 08:36:29;;;;;;;21.00;15.93;;;14.20;99.90;;;;;;4991933;28;20058;-50
2023/10/20 08:38:55;;;;;;;21.67;16.25;;;14.30;99.90;;;;;;4991734;28;20093;-48
2023/10/20 08:41:22;;;;;;;20.98;15.70;;;14.30;99.90;;;;;;4992047;28;20030;-47
2023/10/20 08:43:49;;;;;;;20.33;15.65;;;14.40;99.90;;;;;;4991962;28;20058;-49
2023/10/20 08:46:17;;;;;;;18.00;15.18;;;14.30;99.90;;;;;;4991384;28;20030;-48
2023/10/20 08:48:44;;;;;;;20.67;15.02;;;14.30;99.90;;;;;;4991613;28;20034;-48
2023/10/20 08:51:11;;;;;;;21.25;13.98;;;14.30;99.90;;;;;;4991176;28;20058;-47
2023/10/20 08:53:38;;;;;;;17.08;13.65;;;14.40;99.90;;;;;;4991087;28;20026;-47
2023/10/20 08:56:04;;;;;;;20.95;14.27;;;14.40;99.90;;;;;;4991510;28;20034;-45
2023/10/20 08:58:30;;;;;;;74.55;54.13;;;14.50;99.90;;;;;;4991710;28;20050;-54
2023/10/20 09:00:57;;;;;;;21.55;16.00;;;14.50;99.90;;;;;;4990327;28;20118;-55
2023/10/20 09:03:25;;;;;;;27.85;20.08;;;14.50;99.90;;;;;;4991286;28;20037;-48
2023/10/20 09:05:52;;;;;;;15.73;13.80;;;14.60;99.90;;;;;;4991958;28;20046;-51
2023/10/20 09:08:17;;;;;;;16.85;13.98;;;14.70;99.90;;;;;;4991386;28;20037;-46
2023/10/20 09:10:45;;;;;;;20.85;14.38;;;14.80;99.90;;;;;;4991507;28;20038;-53
2023/10/20 09:13:11;;;;;;;27.33;14.27;;;14.80;99.90;;;;;;4991468;28;20053;-54
2023/10/20 09:15:37;;;;;;;16.65;13.68;;;14.80;99.90;;;;;;4991264;28;20021;-54
2023/10/20 09:18:12;;;;;;;15.32;13.48;;;14.90;99.90;;;;;;4992375;28;20105;-48
2023/10/20 09:20:37;;;;;;;15.00;12.93;;;15.00;99.90;;;;;;4995184;28;20023;-49
2023/10/20 09:23:10;;;;;;;17.15;13.57;;;15.00;99.90;;;;;;4994490;28;20084;-54
2023/10/20 09:25:36;;;;;;;17.50;14.02;;;15.00;99.90;;;;;;4994779;28;20026;-49
2023/10/20 09:28:02;;;;;;;17.92;14.65;;;15.10;99.90;;;;;;4993339;28;20030;-49
2023/10/20 09:30:28;;;;;;;18.38;13.82;;;15.10;99.90;;;;;;4995094;28;20172;-52
2023/10/20 09:32:53;;;;;;;22.33;15.13;;;15.10;99.90;;;;;;4994816;28;20453;-51
2023/10/20 09:35:19;;;;;;;17.17;13.55;;;15.00;99.90;;;;;;4994917;28;20157;-49
2023/10/20 09:37:54;;;;;;;21.67;15.32;;;15.10;99.90;;;;;;4995185;28;20048;-47
2023/10/20 09:40:21;;;;;;;17.15;14.48;;;15.10;99.90;;;;;;4994690;28;20030;-47
2023/10/20 09:43:10;;;;;;;16.52;14.55;;;15.00;99.90;;;;;;4994765;28;20442;-56
2023/10/20 09:45:42;;;;;;;18.05;14.35;;;15.00;99.90;;;;;;4994482;28;20508;-48
2023/10/20 09:48:19;;;;;;;14.65;12.90;;;15.00;99.90;;;;;;5024428;23;20061;-55
2023/10/20 09:50:49;;;;;;;16.70;13.60;;;15.10;99.90;;;;;;4988331;28;20035;-56
2023/10/20 09:53:15;;;;;;;24.20;13.38;;;15.20;99.90;;;;;;4993514;28;20025;-55
2023/10/20 09:55:47;;;;;;;20.83;13.52;;;15.10;99.90;;;;;;4994480;28;20029;-53
2023/10/20 09:58:13;;;;;;;20.55;14.57;;;15.20;99.90;;;;;;4983466;28;20479;-56
2023/10/20 10:00:42;;;;;;;18.05;14.20;;;15.30;99.90;;;;;;4974199;28;20117;-52
2023/10/20 10:03:08;;;;;;;19.25;14.00;;;15.30;99.90;;;;;;4978336;28;20061;-51
2023/10/20 10:05:36;;;;;;;15.52;13.00;;;15.40;99.90;;;;;;4991894;28;20102;-54
2023/10/20 10:08:10;;;;;;;16.42;12.25;;;15.60;99.90;;;;;;4999718;28;20025;-56
2023/10/20 10:10:35;;;;;;;16.25;12.63;;;15.60;99.90;;;;;;4995409;28;20037;-56
2023/10/20 10:13:05;;;;;;;16.88;12.65;;;15.60;99.90;;;;;;4979401;28;20113;-56
2023/10/20 10:15:37;;;;;;;13.52;11.93;;;15.60;99.90;;;;;;4983878;28;20126;-56
2023/10/20 10:18:11;;;;;;;44.30;32.55;;;15.70;99.90;;;;;;4995809;28;20026;-55
2023/10/20 10:21:01;;;;;;;17.35;13.32;;;15.70;99.90;;;;;;4996180;28;20029;-57
2023/10/20 10:23:28;;;;;;;18.25;12.82;;;15.70;99.90;;;;;;4996125;28;20455;-54
2023/10/20 10:25:53;;;;;;;16.42;13.10;;;16.10;99.90;;;;;;4996645;28;20100;-54
2023/10/20 10:28:20;;;;;;;18.73;13.55;;;16.00;99.90;;;;;;4993636;28;20038;-56
2023/10/20 10:30:52;;;;;;;13.77;11.75;;;16.00;99.90;;;;;;4995426;28;20410;-54
2023/10/20 10:33:22;;;;;;;15.23;12.95;;;16.00;99.90;;;;;;4993902;28;20037;-57
2023/10/20 10:35:48;;;;;;;16.17;12.52;;;15.90;99.90;;;;;;4994026;28;20037;-54
2023/10/20 10:38:24;;;;;;;17.60;13.23;;;16.00;99.90;;;;;;4993944;28;20022;-56
2023/10/20 10:40:51;;;;;;;15.52;12.52;;;16.10;99.90;;;;;;4994334;28;20023;-57
2023/10/20 10:43:18;;;;;;;28.55;13.15;;;16.20;99.90;;;;;;4993858;28;20517;-56
2023/10/20 10:45:44;;;;;;;15.15;11.23;;;16.20;99.90;;;;;;4993814;28;20022;-56
2023/10/20 10:48:15;;;;;;;14.65;11.40;;;16.30;99.90;;;;;;4993275;28;20076;-54
2023/10/20 10:50:45;;;;;;;16.63;11.45;;;16.50;99.90;;;;;;4993773;28;20062;-57
2023/10/20 10:53:13;;;;;;;14.52;11.70;;;16.50;99.90;;;;;;4993782;28;20022;-52
2023/10/20 10:55:40;;;;;;;15.60;11.32;;;16.50;99.90;;;;;;4993546;28;20027;-55
2023/10/20 10:58:08;;;;;;;12.65;10.10;;;16.50;99.90;;;;;;4973095;28;20410;-53
2023/10/20 11:00:34;;;;;;;15.20;11.20;;;16.60;99.90;;;;;;4986672;28;20081;-51
2023/10/20 11:03:02;;;;;;;15.20;10.40;;;16.60;99.90;;;;;;4993413;28;20390;-52
2023/10/20 11:05:28;;;;;;;11.75;10.55;;;16.60;99.90;;;;;;4978874;28;20034;-53
2023/10/20 11:08:05;;;;;;;19.20;11.15;;;16.60;99.90;;;;;;4989689;28;20535;-54
2023/10/20 11:10:34;;;;;;;11.98;9.70;;;16.70;99.90;;;;;;4974276;28;20027;-51
2023/10/20 11:13:04;;;;;;;10.20;9.10;;;16.70;99.90;;;;;;4983219;28;20105;-52
2023/10/20 11:15:30;;;;;;;9.88;8.82;;;16.70;99.90;;;;;;4991075;28;20037;-53
2023/10/20 11:18:06;;;;;;;9.80;8.07;;;16.70;99.90;;;;;;4977948;28;20018;-52
2023/10/20 11:20:36;;;;;;;9.45;8.55;;;16.70;99.90;;;;;;4973851;28;20054;-55
2023/10/20 11:23:03;;;;;;;12.98;9.15;;;16.70;99.90;;;;;;4990616;28;20414;-52
2023/10/20 11:25:29;;;;;;;10.07;9.10;;;16.70;99.90;;;;;;4993180;28;20060;-51
2023/10/20 11:27:55;;;;;;;9.32;8.20;;;16.80;99.90;;;;;;4991907;28;20498;-52
2023/10/20 11:30:31;;;;;;;10.98;8.48;;;16.80;99.90;;;;;;4993833;28;20037;-53
2023/10/20 11:32:56;;;;;;;10.50;9.15;;;16.90;99.90;;;;;;4993010;28;20030;-52
2023/10/20 11:35:24;;;;;;;55.40;45.38;;;16.90;99.90;;;;;;4994110;28;20030;-56
2023/10/20 11:37:51;;;;;;;15.10;11.02;;;17.00;99.90;;;;;;4993767;28;20026;-53
2023/10/20 11:40:17;;;;;;;17.92;14.52;;;17.10;99.90;;;;;;4993938;28;20026;-52
2023/10/20 11:42:43;;;;;;;31.08;20.88;;;17.30;99.90;;;;;;4993822;28;20062;-56
2023/10/20 11:45:10;;;;;;;10.20;8.65;;;17.40;99.90;;;;;;4993308;28;20732;-57
2023/10/20 11:47:36;;;;;;;11.00;9.02;;;17.50;99.90;;;;;;4993194;28;20386;-55
2023/10/20 11:50:02;;;;;;;11.57;8.32;;;17.50;99.90;;;;;;4993477;28;20035;-54
2023/10/20 11:52:28;;;;;;;9.18;7.95;;;17.50;99.90;;;;;;4992844;28;20042;-56
2023/10/20 11:54:53;;;;;;;13.10;8.55;;;17.30;99.90;;;;;;4991996;28;20109;-55
2023/10/20 11:57:19;;;;;;;8.52;7.30;;;17.30;99.90;;;;;;4992424;28;20034;-56
2023/10/20 11:59:44;;;;;;;8.38;7.47;;;17.10;99.90;;;;;;4992387;28;20026;-54
2023/10/20 12:02:10;;;;;;;8.48;6.93;;;17.10;99.90;;;;;;4990968;28;20034;-54
2023/10/20 12:04:35;;;;;;;10.75;7.30;;;17.10;99.90;;;;;;4992592;28;20042;-55
2023/10/20 12:07:01;;;;;;;12.38;6.72;;;17.00;99.90;;;;;;4992486;28;20023;-53
2023/10/20 12:09:26;;;;;;;12.05;6.40;;;17.10;99.90;;;;;;4978875;28;20371;-56
2023/10/20 12:11:52;;;;;;;9.23;7.25;;;17.10;99.90;;;;;;4971753;28;20073;-55
2023/10/20 12:14:18;;;;;;;10.63;6.88;;;17.00;99.90;;;;;;4979031;28;20037;-51
2023/10/20 12:16:45;;;;;;;7.63;6.10;;;17.00;99.90;;;;;;4992132;28;20034;-55
2023/10/20 12:19:11;;;;;;;6.95;6.25;;;17.00;99.90;;;;;;4991087;28;20081;-52
2023/10/20 12:21:36;;;;;;;5.63;5.03;;;17.50;99.90;;;;;;4976108;28;20038;-54
2023/10/20 12:24:02;;;;;;;7.03;5.47;;;17.00;99.90;;;;;;4972816;28;20487;-56
2023/10/20 12:26:28;;;;;;;9.88;6.05;;;17.00;99.90;;;;;;4972864;28;20037;-55
2023/10/20 12:28:56;;;;;;;8.57;5.65;;;16.90;99.90;;;;;;4978705;28;20435;-51
2023/10/20 12:31:22;;;;;;;6.15;5.55;;;16.90;99.90;;;;;;4992387;28;20026;-49
2023/10/20 12:33:48;;;;;;;7.97;4.80;;;16.90;99.90;;;;;;4992025;28;20020;-49
2023/10/20 12:36:13;;;;;;;10.23;5.90;;;17.00;99.90;;;;;;4992112;28;20018;-50
2023/10/20 12:38:43;;;;;;;7.65;5.00;;;16.90;99.90;;;;;;4992084;28;20420;-50
2023/10/20 12:41:13;;;;;;;5.68;4.93;;;16.80;99.90;;;;;;4992212;28;20027;-51
2023/10/20 12:43:40;;;;;;;8.25;5.40;;;16.90;99.90;;;;;;4992301;28;20108;-51
2023/10/20 12:46:06;;;;;;;10.68;5.45;;;16.90;99.90;;;;;;4992720;28;20502;-51
2023/10/20 12:48:32;;;;;;;11.25;5.55;;;17.10;99.90;;;;;;4991417;28;20141;-52
2023/10/20 12:51:05;;;;;;;7.28;4.50;;;17.00;99.90;;;;;;4992356;28;20044;-50
2023/10/20 12:53:31;;;;;;;5.30;4.82;;;17.10;99.90;;;;;;4995075;28;20023;-53
2023/10/20 12:55:56;;;;;;;5.93;4.57;;;17.10;99.90;;;;;;4995249;28;20463;-55
2023/10/20 12:58:22;;;;;;;10.18;4.95;;;17.20;99.90;;;;;;4995118;28;20034;-55
2023/10/20 13:00:47;;;;;;;6.25;4.68;;;17.40;99.90;;;;;;4993971;28;20023;-55
2023/10/20 13:03:13;;;;;;;5.50;4.43;;;17.50;99.90;;;;;;4995485;28;20038;-52
2023/10/20 13:05:38;;;;;;;5.57;4.97;;;17.60;99.90;;;;;;4995155;28;20049;-53